sensor_id;sensor_type;location;lat;lon;timestamp;P1;durP1;ratioP1;P2;durP2;ratioP2
65857;SDS011;53776;47.242;18.674;2022-07-29T00:00:42;5.53;;;4.65;;
65857;SDS011;53776;47.242;18.674;2022-07-29T00:05:37;7.00;;;4.68;;
65857;SDS011;53776;47.242;18.674;2022-07-29T00:08:04;10.80;;;5.15;;
65857;SDS011;53776;47.242;18.674;2022-07-29T00:10:29;10.02;;;5.05;;
65857;SDS011;53776;47.242;18.674;2022-07-29T00:12:55;11.13;;;5.55;;
65857;SDS011;53776;47.242;18.674;2022-07-29T00:15:20;8.07;;;5.35;;
65857;SDS011;53776;47.242;18.674;2022-07-29T00:17:46;8.07;;;5.10;;
65857;SDS011;53776;47.242;18.674;2022-07-29T00:20:11;9.73;;;5.70;;
65857;SDS011;53776;47.242;18.674;2022-07-29T00:22:37;10.90;;;5.60;;
65857;SDS011;53776;47.242;18.674;2022-07-29T00:25:04;8.18;;;5.40;;
65857;SDS011;53776;47.242;18.674;2022-07-29T00:27:29;9.32;;;5.43;;
65857;SDS011;53776;47.242;18.674;2022-07-29T00:29:55;9.95;;;5.63;;
65857;SDS011;53776;47.242;18.674;2022-07-29T00:32:20;11.57;;;5.88;;
65857;SDS011;53776;47.242;18.674;2022-07-29T00:34:46;10.35;;;5.65;;
65857;SDS011;53776;47.242;18.674;2022-07-29T00:37:30;9.30;;;5.82;;
65857;SDS011;53776;47.242;18.674;2022-07-29T00:39:55;8.50;;;5.32;;
65857;SDS011;53776;47.242;18.674;2022-07-29T00:42:20;8.40;;;5.43;;
65857;SDS011;53776;47.242;18.674;2022-07-29T00:44:46;15.40;;;6.53;;
65857;SDS011;53776;47.242;18.674;2022-07-29T00:47:12;11.88;;;6.00;;
65857;SDS011;53776;47.242;18.674;2022-07-29T00:49:38;10.70;;;5.82;;
65857;SDS011;53776;47.242;18.674;2022-07-29T00:52:06;11.27;;;5.40;;
65857;SDS011;53776;47.242;18.674;2022-07-29T00:54:33;11.27;;;5.28;;
65857;SDS011;53776;47.242;18.674;2022-07-29T00:56:59;7.75;;;4.72;;
65857;SDS011;53776;47.242;18.674;2022-07-29T00:59:28;8.73;;;4.40;;
65857;SDS011;53776;47.242;18.674;2022-07-29T01:01:54;12.57;;;4.45;;
65857;SDS011;53776;47.242;18.674;2022-07-29T01:04:20;9.45;;;4.30;;
65857;SDS011;53776;47.242;18.674;2022-07-29T01:06:46;7.90;;;4.50;;
65857;SDS011;53776;47.242;18.674;2022-07-29T01:09:13;9.00;;;4.67;;
65857;SDS011;53776;47.242;18.674;2022-07-29T01:11:39;6.88;;;4.25;;
65857;SDS011;53776;47.242;18.674;2022-07-29T01:14:06;5.43;;;4.22;;
65857;SDS011;53776;47.242;18.674;2022-07-29T01:16:36;10.43;;;4.30;;
65857;SDS011;53776;47.242;18.674;2022-07-29T01:19:33;8.85;;;4.18;;
65857;SDS011;53776;47.242;18.674;2022-07-29T01:22:52;8.80;;;4.22;;
65857;SDS011;53776;47.242;18.674;2022-07-29T01:30:32;10.73;;;4.60;;
65857;SDS011;53776;47.242;18.674;2022-07-29T01:33:03;8.35;;;4.57;;
65857;SDS011;53776;47.242;18.674;2022-07-29T01:35:40;7.40;;;4.55;;
65857;SDS011;53776;47.242;18.674;2022-07-29T01:38:12;7.72;;;4.43;;
65857;SDS011;53776;47.242;18.674;2022-07-29T01:43:19;7.50;;;4.10;;
65857;SDS011;53776;47.242;18.674;2022-07-29T01:45:50;9.20;;;4.72;;
65857;SDS011;53776;47.242;18.674;2022-07-29T01:48:23;8.38;;;4.18;;
65857;SDS011;53776;47.242;18.674;2022-07-29T01:50:58;14.02;;;4.78;;
65857;SDS011;53776;47.242;18.674;2022-07-29T01:53:31;6.53;;;4.70;;
65857;SDS011;53776;47.242;18.674;2022-07-29T01:56:00;12.10;;;5.07;;
65857;SDS011;53776;47.242;18.674;2022-07-29T01:58:28;6.85;;;4.70;;
65857;SDS011;53776;47.242;18.674;2022-07-29T02:00:56;5.60;;;4.38;;
65857;SDS011;53776;47.242;18.674;2022-07-29T02:03:23;6.28;;;4.47;;
65857;SDS011;53776;47.242;18.674;2022-07-29T02:05:51;7.15;;;4.72;;
65857;SDS011;53776;47.242;18.674;2022-07-29T02:08:18;7.03;;;4.85;;
65857;SDS011;53776;47.242;18.674;2022-07-29T02:10:45;9.68;;;5.22;;
65857;SDS011;53776;47.242;18.674;2022-07-29T02:13:12;11.10;;;5.57;;
65857;SDS011;53776;47.242;18.674;2022-07-29T02:18:15;9.60;;;4.95;;
65857;SDS011;53776;47.242;18.674;2022-07-29T02:20:47;7.47;;;4.97;;
65857;SDS011;53776;47.242;18.674;2022-07-29T02:23:14;14.63;;;4.97;;
65857;SDS011;53776;47.242;18.674;2022-07-29T02:25:43;10.65;;;4.80;;
65857;SDS011;53776;47.242;18.674;2022-07-29T02:28:08;14.70;;;5.15;;
65857;SDS011;53776;47.242;18.674;2022-07-29T02:30:38;5.45;;;4.85;;
65857;SDS011;53776;47.242;18.674;2022-07-29T02:33:07;6.70;;;5.20;;
65857;SDS011;53776;47.242;18.674;2022-07-29T02:35:34;7.28;;;5.32;;
65857;SDS011;53776;47.242;18.674;2022-07-29T02:38:00;7.10;;;5.38;;
65857;SDS011;53776;47.242;18.674;2022-07-29T02:40:46;6.38;;;4.95;;
65857;SDS011;53776;47.242;18.674;2022-07-29T02:43:13;6.78;;;4.80;;
65857;SDS011;53776;47.242;18.674;2022-07-29T02:45:39;12.18;;;5.55;;
65857;SDS011;53776;47.242;18.674;2022-07-29T02:48:06;7.25;;;5.65;;
65857;SDS011;53776;47.242;18.674;2022-07-29T02:50:40;9.55;;;5.35;;
65857;SDS011;53776;47.242;18.674;2022-07-29T02:53:16;10.98;;;6.07;;
65857;SDS011;53776;47.242;18.674;2022-07-29T02:58:32;8.30;;;5.63;;
65857;SDS011;53776;47.242;18.674;2022-07-29T03:01:00;12.02;;;5.88;;
65857;SDS011;53776;47.242;18.674;2022-07-29T03:03:28;7.68;;;5.72;;
65857;SDS011;53776;47.242;18.674;2022-07-29T03:05:57;10.95;;;5.63;;
65857;SDS011;53776;47.242;18.674;2022-07-29T03:08:25;7.53;;;5.40;;
65857;SDS011;53776;47.242;18.674;2022-07-29T03:10:52;6.88;;;5.55;;
65857;SDS011;53776;47.242;18.674;2022-07-29T03:13:18;8.13;;;5.30;;
65857;SDS011;53776;47.242;18.674;2022-07-29T03:15:44;11.57;;;5.55;;
65857;SDS011;53776;47.242;18.674;2022-07-29T03:18:10;7.10;;;5.32;;
65857;SDS011;53776;47.242;18.674;2022-07-29T03:20:37;6.85;;;5.35;;
65857;SDS011;53776;47.242;18.674;2022-07-29T03:23:03;8.25;;;5.70;;
65857;SDS011;53776;47.242;18.674;2022-07-29T03:25:29;6.88;;;5.18;;
65857;SDS011;53776;47.242;18.674;2022-07-29T03:27:55;8.43;;;5.10;;
65857;SDS011;53776;47.242;18.674;2022-07-29T03:30:21;8.10;;;5.28;;
65857;SDS011;53776;47.242;18.674;2022-07-29T03:32:48;7.03;;;5.30;;
65857;SDS011;53776;47.242;18.674;2022-07-29T03:35:15;7.60;;;5.57;;
65857;SDS011;53776;47.242;18.674;2022-07-29T03:37:41;7.45;;;5.43;;
65857;SDS011;53776;47.242;18.674;2022-07-29T03:40:08;11.07;;;5.85;;
65857;SDS011;53776;47.242;18.674;2022-07-29T03:42:37;6.53;;;5.35;;
65857;SDS011;53776;47.242;18.674;2022-07-29T03:47:35;8.10;;;5.43;;
65857;SDS011;53776;47.242;18.674;2022-07-29T03:50:05;10.82;;;5.75;;
65857;SDS011;53776;47.242;18.674;2022-07-29T03:52:32;8.90;;;5.47;;
65857;SDS011;53776;47.242;18.674;2022-07-29T03:54:58;11.85;;;5.43;;
65857;SDS011;53776;47.242;18.674;2022-07-29T03:57:25;12.25;;;5.22;;
65857;SDS011;53776;47.242;18.674;2022-07-29T03:59:53;9.20;;;5.53;;
65857;SDS011;53776;47.242;18.674;2022-07-29T04:02:19;8.43;;;5.75;;
65857;SDS011;53776;47.242;18.674;2022-07-29T04:04:46;10.30;;;5.28;;
65857;SDS011;53776;47.242;18.674;2022-07-29T04:07:15;11.43;;;5.93;;
65857;SDS011;53776;47.242;18.674;2022-07-29T04:09:40;6.03;;;4.88;;
65857;SDS011;53776;47.242;18.674;2022-07-29T04:12:06;15.02;;;7.60;;
65857;SDS011;53776;47.242;18.674;2022-07-29T04:14:32;9.63;;;5.45;;
65857;SDS011;53776;47.242;18.674;2022-07-29T04:16:59;8.48;;;5.55;;
65857;SDS011;53776;47.242;18.674;2022-07-29T04:19:28;7.72;;;5.50;;
65857;SDS011;53776;47.242;18.674;2022-07-29T04:21:54;13.55;;;5.85;;
65857;SDS011;53776;47.242;18.674;2022-07-29T04:24:19;11.25;;;5.55;;
65857;SDS011;53776;47.242;18.674;2022-07-29T04:26:45;14.40;;;6.18;;
65857;SDS011;53776;47.242;18.674;2022-07-29T04:29:11;8.77;;;5.53;;
65857;SDS011;53776;47.242;18.674;2022-07-29T04:31:37;11.82;;;5.72;;
65857;SDS011;53776;47.242;18.674;2022-07-29T04:34:02;6.13;;;5.53;;
65857;SDS011;53776;47.242;18.674;2022-07-29T04:36:28;8.40;;;5.55;;
65857;SDS011;53776;47.242;18.674;2022-07-29T04:38:53;12.63;;;6.03;;
65857;SDS011;53776;47.242;18.674;2022-07-29T04:41:19;9.82;;;5.80;;
65857;SDS011;53776;47.242;18.674;2022-07-29T04:43:44;8.52;;;6.00;;
65857;SDS011;53776;47.242;18.674;2022-07-29T04:46:09;10.88;;;6.03;;
65857;SDS011;53776;47.242;18.674;2022-07-29T04:48:35;12.85;;;6.28;;
65857;SDS011;53776;47.242;18.674;2022-07-29T04:51:00;14.80;;;7.05;;
65857;SDS011;53776;47.242;18.674;2022-07-29T04:53:26;14.93;;;6.47;;
65857;SDS011;53776;47.242;18.674;2022-07-29T04:55:51;22.13;;;6.70;;
65857;SDS011;53776;47.242;18.674;2022-07-29T04:58:16;16.83;;;6.28;;
65857;SDS011;53776;47.242;18.674;2022-07-29T05:00:42;10.38;;;6.00;;
65857;SDS011;53776;47.242;18.674;2022-07-29T05:03:08;12.55;;;6.32;;
65857;SDS011;53776;47.242;18.674;2022-07-29T05:05:33;11.88;;;5.82;;
65857;SDS011;53776;47.242;18.674;2022-07-29T05:07:59;11.70;;;5.95;;
65857;SDS011;53776;47.242;18.674;2022-07-29T05:10:24;9.57;;;5.60;;
65857;SDS011;53776;47.242;18.674;2022-07-29T05:12:50;10.40;;;6.40;;
65857;SDS011;53776;47.242;18.674;2022-07-29T05:15:15;15.10;;;6.30;;
65857;SDS011;53776;47.242;18.674;2022-07-29T05:17:42;12.77;;;6.47;;
65857;SDS011;53776;47.242;18.674;2022-07-29T05:20:08;16.25;;;6.18;;
65857;SDS011;53776;47.242;18.674;2022-07-29T05:22:34;15.93;;;6.00;;
65857;SDS011;53776;47.242;18.674;2022-07-29T05:24:59;10.82;;;6.13;;
65857;SDS011;53776;47.242;18.674;2022-07-29T05:27:24;9.50;;;5.63;;
65857;SDS011;53776;47.242;18.674;2022-07-29T05:29:50;12.20;;;6.22;;
65857;SDS011;53776;47.242;18.674;2022-07-29T05:32:15;8.02;;;5.47;;
65857;SDS011;53776;47.242;18.674;2022-07-29T05:34:41;11.30;;;5.93;;
65857;SDS011;53776;47.242;18.674;2022-07-29T05:37:06;10.88;;;6.32;;
65857;SDS011;53776;47.242;18.674;2022-07-29T05:39:32;12.35;;;5.68;;
65857;SDS011;53776;47.242;18.674;2022-07-29T05:41:57;13.40;;;6.30;;
65857;SDS011;53776;47.242;18.674;2022-07-29T05:44:22;12.38;;;5.88;;
65857;SDS011;53776;47.242;18.674;2022-07-29T05:46:48;12.95;;;5.78;;
65857;SDS011;53776;47.242;18.674;2022-07-29T05:49:13;13.07;;;5.97;;
65857;SDS011;53776;47.242;18.674;2022-07-29T05:51:39;15.48;;;6.10;;
65857;SDS011;53776;47.242;18.674;2022-07-29T05:54:05;10.15;;;5.93;;
65857;SDS011;53776;47.242;18.674;2022-07-29T05:56:30;10.65;;;5.70;;
65857;SDS011;53776;47.242;18.674;2022-07-29T05:58:56;13.30;;;5.80;;
65857;SDS011;53776;47.242;18.674;2022-07-29T06:01:21;10.50;;;6.15;;
65857;SDS011;53776;47.242;18.674;2022-07-29T06:03:46;12.90;;;5.72;;
65857;SDS011;53776;47.242;18.674;2022-07-29T06:06:12;14.02;;;5.90;;
65857;SDS011;53776;47.242;18.674;2022-07-29T06:08:37;11.10;;;5.38;;
65857;SDS011;53776;47.242;18.674;2022-07-29T06:11:04;11.13;;;6.05;;
65857;SDS011;53776;47.242;18.674;2022-07-29T06:13:30;10.45;;;6.00;;
65857;SDS011;53776;47.242;18.674;2022-07-29T06:15:56;14.15;;;5.47;;
65857;SDS011;53776;47.242;18.674;2022-07-29T06:18:21;10.98;;;5.70;;
65857;SDS011;53776;47.242;18.674;2022-07-29T06:20:49;17.05;;;5.68;;
65857;SDS011;53776;47.242;18.674;2022-07-29T06:23:15;7.72;;;5.60;;
65857;SDS011;53776;47.242;18.674;2022-07-29T06:25:41;9.68;;;5.57;;
65857;SDS011;53776;47.242;18.674;2022-07-29T06:28:06;17.77;;;5.75;;
65857;SDS011;53776;47.242;18.674;2022-07-29T06:30:32;13.73;;;5.63;;
65857;SDS011;53776;47.242;18.674;2022-07-29T06:32:57;8.10;;;5.25;;
65857;SDS011;53776;47.242;18.674;2022-07-29T06:35:23;9.80;;;5.50;;
65857;SDS011;53776;47.242;18.674;2022-07-29T06:37:48;8.15;;;5.25;;
65857;SDS011;53776;47.242;18.674;2022-07-29T06:40:14;10.32;;;5.38;;
65857;SDS011;53776;47.242;18.674;2022-07-29T06:42:58;10.10;;;5.07;;
65857;SDS011;53776;47.242;18.674;2022-07-29T06:45:23;15.93;;;5.13;;
65857;SDS011;53776;47.242;18.674;2022-07-29T06:47:49;8.82;;;4.70;;
65857;SDS011;53776;47.242;18.674;2022-07-29T06:50:14;10.50;;;5.03;;
65857;SDS011;53776;47.242;18.674;2022-07-29T06:52:40;16.63;;;4.93;;
65857;SDS011;53776;47.242;18.674;2022-07-29T06:55:05;7.28;;;4.55;;
65857;SDS011;53776;47.242;18.674;2022-07-29T06:57:31;11.57;;;4.57;;
65857;SDS011;53776;47.242;18.674;2022-07-29T06:59:57;13.02;;;5.15;;
65857;SDS011;53776;47.242;18.674;2022-07-29T07:02:22;12.15;;;4.40;;
65857;SDS011;53776;47.242;18.674;2022-07-29T07:04:48;12.68;;;4.50;;
65857;SDS011;53776;47.242;18.674;2022-07-29T07:07:13;16.48;;;4.75;;
65857;SDS011;53776;47.242;18.674;2022-07-29T07:09:39;16.02;;;4.38;;
65857;SDS011;53776;47.242;18.674;2022-07-29T07:12:04;14.63;;;4.43;;
65857;SDS011;53776;47.242;18.674;2022-07-29T07:14:30;10.80;;;4.40;;
65857;SDS011;53776;47.242;18.674;2022-07-29T07:16:55;13.27;;;4.40;;
65857;SDS011;53776;47.242;18.674;2022-07-29T07:19:20;19.10;;;4.78;;
65857;SDS011;53776;47.242;18.674;2022-07-29T07:21:46;10.13;;;4.87;;
65857;SDS011;53776;47.242;18.674;2022-07-29T07:24:11;7.15;;;4.35;;
65857;SDS011;53776;47.242;18.674;2022-07-29T07:26:37;10.63;;;4.57;;
65857;SDS011;53776;47.242;18.674;2022-07-29T07:29:04;7.25;;;4.50;;
65857;SDS011;53776;47.242;18.674;2022-07-29T07:31:29;7.33;;;4.53;;
65857;SDS011;53776;47.242;18.674;2022-07-29T07:33:55;15.10;;;4.45;;
65857;SDS011;53776;47.242;18.674;2022-07-29T07:36:20;10.02;;;4.18;;
65857;SDS011;53776;47.242;18.674;2022-07-29T07:38:46;13.65;;;4.65;;
65857;SDS011;53776;47.242;18.674;2022-07-29T07:41:11;13.13;;;4.55;;
65857;SDS011;53776;47.242;18.674;2022-07-29T07:43:37;15.30;;;4.70;;
65857;SDS011;53776;47.242;18.674;2022-07-29T07:46:03;12.15;;;4.53;;
65857;SDS011;53776;47.242;18.674;2022-07-29T07:48:29;9.00;;;4.17;;
65857;SDS011;53776;47.242;18.674;2022-07-29T07:50:54;7.67;;;4.50;;
65857;SDS011;53776;47.242;18.674;2022-07-29T07:53:20;15.30;;;4.43;;
65857;SDS011;53776;47.242;18.674;2022-07-29T07:55:45;16.27;;;4.68;;
65857;SDS011;53776;47.242;18.674;2022-07-29T07:58:11;11.77;;;4.30;;
65857;SDS011;53776;47.242;18.674;2022-07-29T08:00:36;15.32;;;4.10;;
65857;SDS011;53776;47.242;18.674;2022-07-29T08:03:02;12.07;;;4.43;;
65857;SDS011;53776;47.242;18.674;2022-07-29T08:05:28;15.02;;;4.70;;
65857;SDS011;53776;47.242;18.674;2022-07-29T08:07:53;13.73;;;4.55;;
65857;SDS011;53776;47.242;18.674;2022-07-29T08:10:19;15.07;;;4.25;;
65857;SDS011;53776;47.242;18.674;2022-07-29T08:13:03;17.63;;;4.97;;
65857;SDS011;53776;47.242;18.674;2022-07-29T08:15:33;11.15;;;4.03;;
65857;SDS011;53776;47.242;18.674;2022-07-29T08:17:59;10.57;;;4.22;;
65857;SDS011;53776;47.242;18.674;2022-07-29T08:20:25;12.43;;;4.65;;
65857;SDS011;53776;47.242;18.674;2022-07-29T08:22:51;10.20;;;4.78;;
65857;SDS011;53776;47.242;18.674;2022-07-29T08:25:17;17.20;;;4.65;;
65857;SDS011;53776;47.242;18.674;2022-07-29T08:27:45;7.55;;;3.80;;
65857;SDS011;53776;47.242;18.674;2022-07-29T08:30:11;21.02;;;4.60;;
65857;SDS011;53776;47.242;18.674;2022-07-29T08:32:37;23.25;;;4.72;;
65857;SDS011;53776;47.242;18.674;2022-07-29T08:35:02;13.90;;;4.15;;
65857;SDS011;53776;47.242;18.674;2022-07-29T08:37:28;16.92;;;4.43;;
65857;SDS011;53776;47.242;18.674;2022-07-29T08:39:53;21.02;;;4.93;;
65857;SDS011;53776;47.242;18.674;2022-07-29T08:42:19;13.60;;;4.40;;
65857;SDS011;53776;47.242;18.674;2022-07-29T08:44:45;12.30;;;4.47;;
65857;SDS011;53776;47.242;18.674;2022-07-29T08:47:10;21.95;;;4.75;;
65857;SDS011;53776;47.242;18.674;2022-07-29T08:49:38;19.38;;;4.57;;
65857;SDS011;53776;47.242;18.674;2022-07-29T08:52:04;10.90;;;4.20;;
65857;SDS011;53776;47.242;18.674;2022-07-29T08:54:30;8.93;;;3.83;;
65857;SDS011;53776;47.242;18.674;2022-07-29T08:56:56;12.27;;;4.43;;
65857;SDS011;53776;47.242;18.674;2022-07-29T08:59:24;17.50;;;4.35;;
65857;SDS011;53776;47.242;18.674;2022-07-29T09:01:52;16.33;;;4.20;;
65857;SDS011;53776;47.242;18.674;2022-07-29T09:04:18;15.02;;;4.68;;
65857;SDS011;53776;47.242;18.674;2022-07-29T09:06:47;15.88;;;4.00;;
65857;SDS011;53776;47.242;18.674;2022-07-29T09:09:14;15.98;;;4.35;;
65857;SDS011;53776;47.242;18.674;2022-07-29T09:11:40;11.02;;;3.92;;
65857;SDS011;53776;47.242;18.674;2022-07-29T09:14:06;12.17;;;4.40;;
65857;SDS011;53776;47.242;18.674;2022-07-29T09:19:22;13.45;;;3.90;;
65857;SDS011;53776;47.242;18.674;2022-07-29T09:21:52;7.22;;;3.65;;
65857;SDS011;53776;47.242;18.674;2022-07-29T09:24:37;16.88;;;4.00;;
65857;SDS011;53776;47.242;18.674;2022-07-29T09:27:24;8.95;;;3.78;;
65857;SDS011;53776;47.242;18.674;2022-07-29T09:30:01;10.50;;;3.60;;
65857;SDS011;53776;47.242;18.674;2022-07-29T09:32:31;19.52;;;3.75;;
65857;SDS011;53776;47.242;18.674;2022-07-29T09:35:13;13.23;;;3.40;;
65857;SDS011;53776;47.242;18.674;2022-07-29T09:37:40;14.60;;;3.63;;
65857;SDS011;53776;47.242;18.674;2022-07-29T09:40:18;7.93;;;3.60;;
65857;SDS011;53776;47.242;18.674;2022-07-29T09:42:46;10.93;;;3.22;;
65857;SDS011;53776;47.242;18.674;2022-07-29T09:45:12;7.05;;;3.47;;
65857;SDS011;53776;47.242;18.674;2022-07-29T09:47:50;6.22;;;3.50;;
65857;SDS011;53776;47.242;18.674;2022-07-29T09:50:15;16.02;;;3.42;;
65857;SDS011;53776;47.242;18.674;2022-07-29T09:52:48;11.52;;;3.20;;
65857;SDS011;53776;47.242;18.674;2022-07-29T09:55:15;15.68;;;3.17;;
65857;SDS011;53776;47.242;18.674;2022-07-29T09:57:41;9.85;;;3.20;;
65857;SDS011;53776;47.242;18.674;2022-07-29T10:02:44;5.28;;;3.20;;
65857;SDS011;53776;47.242;18.674;2022-07-29T10:05:21;9.38;;;3.72;;
65857;SDS011;53776;47.242;18.674;2022-07-29T10:10:22;19.23;;;3.10;;
65857;SDS011;53776;47.242;18.674;2022-07-29T10:12:53;12.63;;;3.53;;
65857;SDS011;53776;47.242;18.674;2022-07-29T10:15:21;10.30;;;3.08;;
65857;SDS011;53776;47.242;18.674;2022-07-29T10:17:48;11.32;;;3.45;;
65857;SDS011;53776;47.242;18.674;2022-07-29T10:20:15;4.88;;;3.17;;
65857;SDS011;53776;47.242;18.674;2022-07-29T10:22:41;12.57;;;3.30;;
65857;SDS011;53776;47.242;18.674;2022-07-29T10:25:07;11.35;;;3.50;;
65857;SDS011;53776;47.242;18.674;2022-07-29T10:27:34;4.82;;;2.72;;
65857;SDS011;53776;47.242;18.674;2022-07-29T10:30:01;6.90;;;3.22;;
65857;SDS011;53776;47.242;18.674;2022-07-29T10:35:08;9.75;;;2.95;;
65857;SDS011;53776;47.242;18.674;2022-07-29T10:43:32;6.35;;;3.00;;
65857;SDS011;53776;47.242;18.674;2022-07-29T10:46:01;11.13;;;2.90;;
65857;SDS011;53776;47.242;18.674;2022-07-29T10:48:28;4.00;;;2.85;;
65857;SDS011;53776;47.242;18.674;2022-07-29T10:56:24;6.47;;;2.63;;
65857;SDS011;53776;47.242;18.674;2022-07-29T11:01:48;7.97;;;4.00;;
65857;SDS011;53776;47.242;18.674;2022-07-29T11:04:15;13.52;;;3.67;;
65857;SDS011;53776;47.242;18.674;2022-07-29T11:09:27;15.20;;;3.70;;
65857;SDS011;53776;47.242;18.674;2022-07-29T11:17:17;10.30;;;3.72;;
65857;SDS011;53776;47.242;18.674;2022-07-29T11:19:43;9.27;;;3.00;;
65857;SDS011;53776;47.242;18.674;2022-07-29T11:22:09;5.20;;;2.85;;
65857;SDS011;53776;47.242;18.674;2022-07-29T11:24:35;10.38;;;3.25;;
65857;SDS011;53776;47.242;18.674;2022-07-29T11:29:39;6.32;;;3.05;;
65857;SDS011;53776;47.242;18.674;2022-07-29T11:32:41;4.25;;;2.90;;
65857;SDS011;53776;47.242;18.674;2022-07-29T11:37:36;5.78;;;3.05;;
65857;SDS011;53776;47.242;18.674;2022-07-29T11:45:01;4.07;;;2.60;;
65857;SDS011;53776;47.242;18.674;2022-07-29T11:47:42;11.18;;;2.90;;
65857;SDS011;53776;47.242;18.674;2022-07-29T11:50:15;6.90;;;3.25;;
65857;SDS011;53776;47.242;18.674;2022-07-29T11:52:43;6.82;;;2.75;;
65857;SDS011;53776;47.242;18.674;2022-07-29T11:55:15;5.72;;;2.55;;
65857;SDS011;53776;47.242;18.674;2022-07-29T11:57:50;7.90;;;2.92;;
65857;SDS011;53776;47.242;18.674;2022-07-29T12:02:49;11.20;;;3.10;;
65857;SDS011;53776;47.242;18.674;2022-07-29T12:05:15;6.30;;;3.30;;
65857;SDS011;53776;47.242;18.674;2022-07-29T12:07:41;6.85;;;3.10;;
65857;SDS011;53776;47.242;18.674;2022-07-29T12:10:07;5.93;;;3.20;;
65857;SDS011;53776;47.242;18.674;2022-07-29T12:12:33;5.68;;;3.22;;
65857;SDS011;53776;47.242;18.674;2022-07-29T12:15:12;7.80;;;3.13;;
65857;SDS011;53776;47.242;18.674;2022-07-29T12:17:43;7.78;;;3.35;;
65857;SDS011;53776;47.242;18.674;2022-07-29T12:20:08;12.73;;;3.60;;
65857;SDS011;53776;47.242;18.674;2022-07-29T12:22:35;8.85;;;3.10;;
65857;SDS011;53776;47.242;18.674;2022-07-29T12:25:03;6.32;;;2.92;;
65857;SDS011;53776;47.242;18.674;2022-07-29T12:27:31;6.10;;;3.38;;
65857;SDS011;53776;47.242;18.674;2022-07-29T12:30:01;6.27;;;3.37;;
65857;SDS011;53776;47.242;18.674;2022-07-29T12:32:36;8.95;;;3.10;;
65857;SDS011;53776;47.242;18.674;2022-07-29T12:35:04;6.82;;;3.25;;
65857;SDS011;53776;47.242;18.674;2022-07-29T12:37:33;16.38;;;3.75;;
65857;SDS011;53776;47.242;18.674;2022-07-29T12:40:00;6.53;;;3.10;;
65857;SDS011;53776;47.242;18.674;2022-07-29T12:42:26;9.30;;;3.30;;
65857;SDS011;53776;47.242;18.674;2022-07-29T12:44:52;15.07;;;3.10;;
65857;SDS011;53776;47.242;18.674;2022-07-29T12:47:18;7.40;;;3.28;;
65857;SDS011;53776;47.242;18.674;2022-07-29T12:49:44;5.43;;;3.05;;
65857;SDS011;53776;47.242;18.674;2022-07-29T12:52:24;10.43;;;3.05;;
65857;SDS011;53776;47.242;18.674;2022-07-29T12:54:57;6.00;;;3.65;;
65857;SDS011;53776;47.242;18.674;2022-07-29T12:57:23;9.07;;;3.00;;
65857;SDS011;53776;47.242;18.674;2022-07-29T13:02:30;9.68;;;2.90;;
65857;SDS011;53776;47.242;18.674;2022-07-29T13:04:57;8.30;;;3.33;;
65857;SDS011;53776;47.242;18.674;2022-07-29T13:07:24;7.25;;;3.13;;
65857;SDS011;53776;47.242;18.674;2022-07-29T13:09:52;5.78;;;3.33;;
65857;SDS011;53776;47.242;18.674;2022-07-29T13:12:17;4.03;;;3.25;;
65857;SDS011;53776;47.242;18.674;2022-07-29T13:14:43;7.95;;;3.28;;
65857;SDS011;53776;47.242;18.674;2022-07-29T13:17:11;3.78;;;3.13;;
65857;SDS011;53776;47.242;18.674;2022-07-29T13:19:40;4.72;;;3.22;;
65857;SDS011;53776;47.242;18.674;2022-07-29T13:22:08;7.82;;;3.53;;
65857;SDS011;53776;47.242;18.674;2022-07-29T13:24:47;8.65;;;3.60;;
65857;SDS011;53776;47.242;18.674;2022-07-29T13:27:31;6.40;;;3.05;;
65857;SDS011;53776;47.242;18.674;2022-07-29T13:29:59;4.80;;;3.33;;
65857;SDS011;53776;47.242;18.674;2022-07-29T13:32:27;5.07;;;3.35;;
65857;SDS011;53776;47.242;18.674;2022-07-29T13:34:55;5.78;;;3.40;;
65857;SDS011;53776;47.242;18.674;2022-07-29T13:39:47;8.53;;;3.03;;
65857;SDS011;53776;47.242;18.674;2022-07-29T13:42:12;8.27;;;3.55;;
65857;SDS011;53776;47.242;18.674;2022-07-29T13:44:38;6.43;;;3.30;;
65857;SDS011;53776;47.242;18.674;2022-07-29T13:47:05;5.28;;;3.20;;
65857;SDS011;53776;47.242;18.674;2022-07-29T13:49:31;7.03;;;3.58;;
65857;SDS011;53776;47.242;18.674;2022-07-29T13:51:56;7.07;;;3.40;;
65857;SDS011;53776;47.242;18.674;2022-07-29T13:54:22;10.68;;;3.08;;
65857;SDS011;53776;47.242;18.674;2022-07-29T13:56:49;5.05;;;3.22;;
65857;SDS011;53776;47.242;18.674;2022-07-29T13:59:15;10.80;;;3.80;;
65857;SDS011;53776;47.242;18.674;2022-07-29T14:01:40;9.55;;;3.50;;
65857;SDS011;53776;47.242;18.674;2022-07-29T14:04:09;9.48;;;3.60;;
65857;SDS011;53776;47.242;18.674;2022-07-29T14:06:35;8.25;;;3.33;;
65857;SDS011;53776;47.242;18.674;2022-07-29T14:09:02;8.38;;;3.30;;
65857;SDS011;53776;47.242;18.674;2022-07-29T14:11:31;5.05;;;3.25;;
65857;SDS011;53776;47.242;18.674;2022-07-29T14:13:56;5.60;;;3.40;;
65857;SDS011;53776;47.242;18.674;2022-07-29T14:16:22;8.63;;;3.60;;
65857;SDS011;53776;47.242;18.674;2022-07-29T14:18:47;4.68;;;3.42;;
65857;SDS011;53776;47.242;18.674;2022-07-29T14:21:13;3.78;;;3.20;;
65857;SDS011;53776;47.242;18.674;2022-07-29T14:23:38;4.90;;;3.35;;
65857;SDS011;53776;47.242;18.674;2022-07-29T14:26:03;6.45;;;3.50;;
65857;SDS011;53776;47.242;18.674;2022-07-29T14:28:29;13.48;;;3.63;;
65857;SDS011;53776;47.242;18.674;2022-07-29T14:30:54;7.07;;;3.60;;
65857;SDS011;53776;47.242;18.674;2022-07-29T14:33:20;4.88;;;3.17;;
65857;SDS011;53776;47.242;18.674;2022-07-29T14:35:45;3.95;;;3.00;;
65857;SDS011;53776;47.242;18.674;2022-07-29T14:38:11;9.07;;;3.58;;
65857;SDS011;53776;47.242;18.674;2022-07-29T14:40:36;7.70;;;3.25;;
65857;SDS011;53776;47.242;18.674;2022-07-29T14:43:02;6.97;;;3.47;;
65857;SDS011;53776;47.242;18.674;2022-07-29T14:45:28;10.50;;;3.25;;
65857;SDS011;53776;47.242;18.674;2022-07-29T14:47:53;8.00;;;3.30;;
65857;SDS011;53776;47.242;18.674;2022-07-29T14:50:19;7.78;;;3.40;;
65857;SDS011;53776;47.242;18.674;2022-07-29T14:52:44;8.27;;;3.25;;
65857;SDS011;53776;47.242;18.674;2022-07-29T14:55:10;12.32;;;4.03;;
65857;SDS011;53776;47.242;18.674;2022-07-29T14:57:36;6.72;;;3.42;;
65857;SDS011;53776;47.242;18.674;2022-07-29T15:00:02;9.63;;;3.25;;
65857;SDS011;53776;47.242;18.674;2022-07-29T15:02:29;9.25;;;3.42;;
65857;SDS011;53776;47.242;18.674;2022-07-29T15:04:54;7.10;;;3.70;;
65857;SDS011;53776;47.242;18.674;2022-07-29T15:07:19;6.00;;;3.73;;
65857;SDS011;53776;47.242;18.674;2022-07-29T15:09:45;5.53;;;3.72;;
65857;SDS011;53776;47.242;18.674;2022-07-29T15:12:10;6.13;;;3.22;;
65857;SDS011;53776;47.242;18.674;2022-07-29T15:14:36;6.05;;;3.33;;
65857;SDS011;53776;47.242;18.674;2022-07-29T15:17:02;17.33;;;3.40;;
65857;SDS011;53776;47.242;18.674;2022-07-29T15:19:27;15.68;;;3.50;;
65857;SDS011;53776;47.242;18.674;2022-07-29T15:21:53;12.97;;;3.73;;
65857;SDS011;53776;47.242;18.674;2022-07-29T15:24:18;8.23;;;3.22;;
65857;SDS011;53776;47.242;18.674;2022-07-29T15:26:44;7.72;;;3.60;;
65857;SDS011;53776;47.242;18.674;2022-07-29T15:29:10;5.38;;;3.30;;
65857;SDS011;53776;47.242;18.674;2022-07-29T15:31:35;9.45;;;3.88;;
65857;SDS011;53776;47.242;18.674;2022-07-29T15:34:01;8.00;;;3.50;;
65857;SDS011;53776;47.242;18.674;2022-07-29T15:36:26;8.20;;;3.60;;
65857;SDS011;53776;47.242;18.674;2022-07-29T15:38:54;6.75;;;3.63;;